Lebanon, CT (06249)

12:51 AM EST on January 27, 2015 (GMT -0500)
Yantic River | Change Station
CLOSE
Current Station
Personal Weather Station
Location: Bozrah, CT
Elevation: 364 ft
Nearby Weather Stations
Active Advisory: Blizzard Warning Active Notice: Public Information Statement

Elev 364 ft 41.57 °N, 72.18 °W | Updated 29 seconds ago

Snow
Snow
17.9 °F
Feels Like 18 °F
N
3.0
Wind Variable Wind from WNW
Gusts 4.0 mph

Today
High -- | Low -- °F
--% Chance of Precip.
Yesterday
High -- | Low -- °F
Precip. -- in
7:05 AM 4:58 PM
Waxing Crescent, 50% visible
Pressure 29.67 in
Visibility 0.8 miles
Clouds
Windchill 18 °F
Dew Point 16 °F
Humidity 92%
Rainfall 0.00 in
Snow Depth Not available.
UV Not available.
Pollen .10 out of 12
Air Quality Not available.
Flu Activity Not available.
SPECI KIJD 270537Z AUTO 03022G32KT 3/4SM -SN VV011 M07/M10 A2967 RMK AO2 PK WND 02033/0523 P0000 T10721100

More Conditions Fewer Conditions

Pressure 29.67 in
Visibility 0.8 miles
Clouds
Windchill 18 °F
Dew Point 16 °F
Humidity 92%
Rainfall 0.00 in
Snow Depth Not available.
UV Not available.
Pollen .10 out of 12
Air Quality Not available.
Flu Activity Not available.
SPECI KIJD 270537Z AUTO 03022G32KT 3/4SM -SN VV011 M07/M10 A2967 RMK AO2 PK WND 02033/0523 P0000 T10721100

More Conditions Fewer Conditions

10-Day Weather Forecast

Almanac

Astronomy

Jan. 27, 2015 Rise Set
Actual Time
Civil Twilight
Nautical Twilight
Astronomical Twilight
Moon
Length of Visible Light
Length of Day
Tomorrow will be .
, % of the Moon is Illuminated

Today's Extremes

State Highs State Lows

Community

WunderPhotos

Upload Photos

1,790,536 photos uploaded!

WunderBlogs® & News

Nearby

Air Quality

  Air Quality AQ Index Pollutant
Not available.

Snow Depth

Station Depth Elevation

Earthquake Activity

City Distance Mag. Time & Date
Minimum magnitude displayed is 2.5.

Coastal Water Temperatures

Place Temperature

Nearby Weather Stations